<?xml version="1.0" encoding="UTF-8" standalone="no" ?>
<gpx xmlns="http://www.topografix.com/GPX/1/1" xmlns:xsi="http://www.w3.org/2001/XMLSchema-instance" xsi:schemaLocation="http://www.topografix.com/GPX/1/1 http://www.topografix.com/GPX/1/1/gpx.xsd" version="1.1" creator="VisuGPX - https://www.visugpx.com">
  <metadata>
    <name> La chapelle notre Dame de NATZY</name>
    <desc><![CDATA[Piste 36 - La chapelle notre Dame de NATZY]]></desc>
  </metadata>
  <trk>
    <name><![CDATA[piste 36 - La chapelle Notre Dame de NATZY - Auvergne]]></name>
    <trkseg>
      <trkpt lat="45.53273" lon="2.68694">
        <ele>990</ele>
        <time>2014-08-04T13:11:06Z</time>
      </trkpt>
      <trkpt lat="45.53265" lon="2.68697">
        <ele>989</ele>
        <time>2014-08-04T13:11:43Z</time>
      </trkpt>
      <trkpt lat="45.53258" lon="2.68691">
        <ele>990</ele>
        <time>2014-08-04T13:11:52Z</time>
      </trkpt>
      <trkpt lat="45.53252" lon="2.68684">
        <ele>989</ele>
        <time>2014-08-04T13:11:59Z</time>
      </trkpt>
      <trkpt lat="45.53247" lon="2.68673">
        <ele>993</ele>
        <time>2014-08-04T13:12:07Z</time>
      </trkpt>
      <trkpt lat="45.53242" lon="2.68664">
        <ele>992</ele>
        <time>2014-08-04T13:12:17Z</time>
      </trkpt>
      <trkpt lat="45.5324" lon="2.68651">
        <ele>991</ele>
        <time>2014-08-04T13:12:26Z</time>
      </trkpt>
      <trkpt lat="45.53247" lon="2.68645">
        <ele>987</ele>
        <time>2014-08-04T13:12:37Z</time>
      </trkpt>
      <trkpt lat="45.53239" lon="2.68649">
        <ele>987</ele>
        <time>2014-08-04T13:12:59Z</time>
      </trkpt>
      <trkpt lat="45.53232" lon="2.68644">
        <ele>985</ele>
        <time>2014-08-04T13:13:04Z</time>
      </trkpt>
      <trkpt lat="45.53228" lon="2.68635">
        <ele>985</ele>
        <time>2014-08-04T13:13:10Z</time>
      </trkpt>
      <trkpt lat="45.53226" lon="2.68624">
        <ele>985</ele>
        <time>2014-08-04T13:13:17Z</time>
      </trkpt>
      <trkpt lat="45.53223" lon="2.68612">
        <ele>986</ele>
        <time>2014-08-04T13:13:28Z</time>
      </trkpt>
      <trkpt lat="45.53227" lon="2.68623">
        <ele>991</ele>
        <time>2014-08-04T13:13:49Z</time>
      </trkpt>
      <trkpt lat="45.53232" lon="2.68632">
        <ele>992</ele>
        <time>2014-08-04T13:13:57Z</time>
      </trkpt>
      <trkpt lat="45.53239" lon="2.68639">
        <ele>991</ele>
        <time>2014-08-04T13:14:05Z</time>
      </trkpt>
      <trkpt lat="45.53247" lon="2.68643">
        <ele>989</ele>
        <time>2014-08-04T13:14:13Z</time>
      </trkpt>
      <trkpt lat="45.53255" lon="2.68648">
        <ele>989</ele>
        <time>2014-08-04T13:14:18Z</time>
      </trkpt>
      <trkpt lat="45.53263" lon="2.68652">
        <ele>986</ele>
        <time>2014-08-04T13:14:24Z</time>
      </trkpt>
      <trkpt lat="45.53271" lon="2.68655">
        <ele>985</ele>
        <time>2014-08-04T13:14:35Z</time>
      </trkpt>
      <trkpt lat="45.53279" lon="2.68658">
        <ele>984</ele>
        <time>2014-08-04T13:14:44Z</time>
      </trkpt>
      <trkpt lat="45.53288" lon="2.6866">
        <ele>986</ele>
        <time>2014-08-04T13:14:54Z</time>
      </trkpt>
      <trkpt lat="45.53297" lon="2.6866">
        <ele>985</ele>
        <time>2014-08-04T13:15:02Z</time>
      </trkpt>
      <trkpt lat="45.53305" lon="2.68661">
        <ele>988</ele>
        <time>2014-08-04T13:15:09Z</time>
      </trkpt>
      <trkpt lat="45.53313" lon="2.68661">
        <ele>987</ele>
        <time>2014-08-04T13:15:15Z</time>
      </trkpt>
      <trkpt lat="45.53321" lon="2.68661">
        <ele>986</ele>
        <time>2014-08-04T13:15:23Z</time>
      </trkpt>
      <trkpt lat="45.5333" lon="2.6866">
        <ele>981</ele>
        <time>2014-08-04T13:15:31Z</time>
      </trkpt>
      <trkpt lat="45.53338" lon="2.68657">
        <ele>978</ele>
        <time>2014-08-04T13:15:38Z</time>
      </trkpt>
      <trkpt lat="45.53344" lon="2.68649">
        <ele>978</ele>
        <time>2014-08-04T13:15:46Z</time>
      </trkpt>
      <trkpt lat="45.53349" lon="2.6864">
        <ele>977</ele>
        <time>2014-08-04T13:15:53Z</time>
      </trkpt>
      <trkpt lat="45.53354" lon="2.68631">
        <ele>977</ele>
        <time>2014-08-04T13:16:00Z</time>
      </trkpt>
      <trkpt lat="45.53361" lon="2.68623">
        <ele>977</ele>
        <time>2014-08-04T13:16:10Z</time>
      </trkpt>
      <trkpt lat="45.53368" lon="2.68618">
        <ele>975</ele>
        <time>2014-08-04T13:16:19Z</time>
      </trkpt>
      <trkpt lat="45.53376" lon="2.68619">
        <ele>975</ele>
        <time>2014-08-04T13:16:27Z</time>
      </trkpt>
      <trkpt lat="45.53384" lon="2.68623">
        <ele>975</ele>
        <time>2014-08-04T13:16:35Z</time>
      </trkpt>
      <trkpt lat="45.53391" lon="2.68624">
        <ele>979</ele>
        <time>2014-08-04T13:16:42Z</time>
      </trkpt>
      <trkpt lat="45.53397" lon="2.68619">
        <ele>975</ele>
        <time>2014-08-04T13:16:49Z</time>
      </trkpt>
      <trkpt lat="45.53403" lon="2.68613">
        <ele>974</ele>
        <time>2014-08-04T13:16:55Z</time>
      </trkpt>
      <trkpt lat="45.53411" lon="2.68608">
        <ele>974</ele>
        <time>2014-08-04T13:17:02Z</time>
      </trkpt>
      <trkpt lat="45.53418" lon="2.68611">
        <ele>976</ele>
        <time>2014-08-04T13:17:09Z</time>
      </trkpt>
      <trkpt lat="45.53426" lon="2.68613">
        <ele>975</ele>
        <time>2014-08-04T13:17:17Z</time>
      </trkpt>
      <trkpt lat="45.53434" lon="2.68617">
        <ele>977</ele>
        <time>2014-08-04T13:17:26Z</time>
      </trkpt>
      <trkpt lat="45.53443" lon="2.6862">
        <ele>980</ele>
        <time>2014-08-04T13:17:34Z</time>
      </trkpt>
      <trkpt lat="45.53451" lon="2.68619">
        <ele>980</ele>
        <time>2014-08-04T13:17:42Z</time>
      </trkpt>
      <trkpt lat="45.53458" lon="2.68611">
        <ele>980</ele>
        <time>2014-08-04T13:17:49Z</time>
      </trkpt>
      <trkpt lat="45.53466" lon="2.68615">
        <ele>978</ele>
        <time>2014-08-04T13:17:59Z</time>
      </trkpt>
      <trkpt lat="45.53472" lon="2.6862">
        <ele>978</ele>
        <time>2014-08-04T13:18:05Z</time>
      </trkpt>
      <trkpt lat="45.5348" lon="2.68626">
        <ele>978</ele>
        <time>2014-08-04T13:18:13Z</time>
      </trkpt>
      <trkpt lat="45.53486" lon="2.68631">
        <ele>982</ele>
        <time>2014-08-04T13:18:23Z</time>
      </trkpt>
      <trkpt lat="45.53493" lon="2.68633">
        <ele>983</ele>
        <time>2014-08-04T13:18:33Z</time>
      </trkpt>
      <trkpt lat="45.535" lon="2.68635">
        <ele>984</ele>
        <time>2014-08-04T13:18:38Z</time>
      </trkpt>
      <trkpt lat="45.53504" lon="2.68644">
        <ele>989</ele>
        <time>2014-08-04T13:18:47Z</time>
      </trkpt>
      <trkpt lat="45.53512" lon="2.6865">
        <ele>993</ele>
        <time>2014-08-04T13:19:04Z</time>
      </trkpt>
      <trkpt lat="45.5352" lon="2.68649">
        <ele>995</ele>
        <time>2014-08-04T13:19:24Z</time>
      </trkpt>
      <trkpt lat="45.53524" lon="2.68637">
        <ele>993</ele>
        <time>2014-08-04T13:19:33Z</time>
      </trkpt>
      <trkpt lat="45.53528" lon="2.68626">
        <ele>991</ele>
        <time>2014-08-04T13:19:43Z</time>
      </trkpt>
      <trkpt lat="45.53531" lon="2.68614">
        <ele>990</ele>
        <time>2014-08-04T13:19:53Z</time>
      </trkpt>
      <trkpt lat="45.53533" lon="2.68603">
        <ele>992</ele>
        <time>2014-08-04T13:20:02Z</time>
      </trkpt>
      <trkpt lat="45.53539" lon="2.68593">
        <ele>992</ele>
        <time>2014-08-04T13:20:10Z</time>
      </trkpt>
      <trkpt lat="45.53544" lon="2.68583">
        <ele>990</ele>
        <time>2014-08-04T13:20:19Z</time>
      </trkpt>
      <trkpt lat="45.53553" lon="2.68585">
        <ele>995</ele>
        <time>2014-08-04T13:20:33Z</time>
      </trkpt>
      <trkpt lat="45.5356" lon="2.68588">
        <ele>995</ele>
        <time>2014-08-04T13:20:43Z</time>
      </trkpt>
      <trkpt lat="45.53563" lon="2.68576">
        <ele>999</ele>
        <time>2014-08-04T13:21:14Z</time>
      </trkpt>
      <trkpt lat="45.53569" lon="2.6857">
        <ele>998</ele>
        <time>2014-08-04T13:21:20Z</time>
      </trkpt>
      <trkpt lat="45.53576" lon="2.68566">
        <ele>1000</ele>
        <time>2014-08-04T13:21:27Z</time>
      </trkpt>
      <trkpt lat="45.53582" lon="2.68559">
        <ele>998</ele>
        <time>2014-08-04T13:21:34Z</time>
      </trkpt>
      <trkpt lat="45.53587" lon="2.68549">
        <ele>996</ele>
        <time>2014-08-04T13:21:43Z</time>
      </trkpt>
      <trkpt lat="45.53593" lon="2.6854">
        <ele>1003</ele>
        <time>2014-08-04T13:23:23Z</time>
      </trkpt>
      <trkpt lat="45.53601" lon="2.68533">
        <ele>1003</ele>
        <time>2014-08-04T13:23:28Z</time>
      </trkpt>
      <trkpt lat="45.53608" lon="2.68526">
        <ele>1003</ele>
        <time>2014-08-04T13:23:33Z</time>
      </trkpt>
      <trkpt lat="45.53612" lon="2.68525">
        <ele>1005</ele>
        <time>2014-08-04T13:24:12Z</time>
      </trkpt>
      <trkpt lat="45.53624" lon="2.68514">
        <ele>1006</ele>
        <time>2014-08-04T13:24:16Z</time>
      </trkpt>
      <trkpt lat="45.53631" lon="2.68504">
        <ele>1009</ele>
        <time>2014-08-04T13:24:21Z</time>
      </trkpt>
      <trkpt lat="45.53636" lon="2.68496">
        <ele>1012</ele>
        <time>2014-08-04T13:24:27Z</time>
      </trkpt>
      <trkpt lat="45.53637" lon="2.68483">
        <ele>1009</ele>
        <time>2014-08-04T13:24:37Z</time>
      </trkpt>
      <trkpt lat="45.53639" lon="2.68472">
        <ele>1012</ele>
        <time>2014-08-04T13:24:47Z</time>
      </trkpt>
      <trkpt lat="45.53647" lon="2.68467">
        <ele>1011</ele>
        <time>2014-08-04T13:24:54Z</time>
      </trkpt>
      <trkpt lat="45.5365" lon="2.68456">
        <ele>1014</ele>
        <time>2014-08-04T13:25:05Z</time>
      </trkpt>
      <trkpt lat="45.53659" lon="2.6845">
        <ele>1013</ele>
        <time>2014-08-04T13:25:10Z</time>
      </trkpt>
      <trkpt lat="45.53667" lon="2.68446">
        <ele>1015</ele>
        <time>2014-08-04T13:25:17Z</time>
      </trkpt>
      <trkpt lat="45.53674" lon="2.68438">
        <ele>1015</ele>
        <time>2014-08-04T13:25:28Z</time>
      </trkpt>
      <trkpt lat="45.5368" lon="2.6843">
        <ele>1017</ele>
        <time>2014-08-04T13:25:40Z</time>
      </trkpt>
      <trkpt lat="45.53687" lon="2.68423">
        <ele>1017</ele>
        <time>2014-08-04T13:25:47Z</time>
      </trkpt>
      <trkpt lat="45.53694" lon="2.68417">
        <ele>1015</ele>
        <time>2014-08-04T13:25:57Z</time>
      </trkpt>
      <trkpt lat="45.53701" lon="2.68409">
        <ele>1019</ele>
        <time>2014-08-04T13:26:06Z</time>
      </trkpt>
      <trkpt lat="45.53708" lon="2.68403">
        <ele>1017</ele>
        <time>2014-08-04T13:26:16Z</time>
      </trkpt>
      <trkpt lat="45.53716" lon="2.68401">
        <ele>1016</ele>
        <time>2014-08-04T13:26:24Z</time>
      </trkpt>
      <trkpt lat="45.53724" lon="2.68399">
        <ele>1014</ele>
        <time>2014-08-04T13:26:33Z</time>
      </trkpt>
      <trkpt lat="45.53732" lon="2.68394">
        <ele>1020</ele>
        <time>2014-08-04T13:26:40Z</time>
      </trkpt>
      <trkpt lat="45.53741" lon="2.68398">
        <ele>1021</ele>
        <time>2014-08-04T13:26:51Z</time>
      </trkpt>
      <trkpt lat="45.53749" lon="2.68398">
        <ele>1021</ele>
        <time>2014-08-04T13:26:58Z</time>
      </trkpt>
      <trkpt lat="45.53757" lon="2.68395">
        <ele>1022</ele>
        <time>2014-08-04T13:27:04Z</time>
      </trkpt>
      <trkpt lat="45.5376" lon="2.68405">
        <ele>1019</ele>
        <time>2014-08-04T13:27:12Z</time>
      </trkpt>
      <trkpt lat="45.53764" lon="2.68416">
        <ele>1016</ele>
        <time>2014-08-04T13:27:22Z</time>
      </trkpt>
      <trkpt lat="45.53762" lon="2.68428">
        <ele>1023</ele>
        <time>2014-08-04T13:27:38Z</time>
      </trkpt>
      <trkpt lat="45.53754" lon="2.68431">
        <ele>1024</ele>
        <time>2014-08-04T13:27:50Z</time>
      </trkpt>
      <trkpt lat="45.53746" lon="2.68435">
        <ele>1022</ele>
        <time>2014-08-04T13:28:06Z</time>
      </trkpt>
      <trkpt lat="45.53739" lon="2.68441">
        <ele>1025</ele>
        <time>2014-08-04T13:28:18Z</time>
      </trkpt>
      <trkpt lat="45.53737" lon="2.68452">
        <ele>1025</ele>
        <time>2014-08-04T13:28:37Z</time>
      </trkpt>
      <trkpt lat="45.53738" lon="2.68463">
        <ele>1026</ele>
        <time>2014-08-04T13:28:45Z</time>
      </trkpt>
      <trkpt lat="45.53738" lon="2.68476">
        <ele>1028</ele>
        <time>2014-08-04T13:29:25Z</time>
      </trkpt>
      <trkpt lat="45.53738" lon="2.68488">
        <ele>1032</ele>
        <time>2014-08-04T13:29:37Z</time>
      </trkpt>
      <trkpt lat="45.53732" lon="2.68496">
        <ele>1036</ele>
        <time>2014-08-04T13:30:21Z</time>
      </trkpt>
      <trkpt lat="45.53736" lon="2.68506">
        <ele>1038</ele>
        <time>2014-08-04T13:30:41Z</time>
      </trkpt>
      <trkpt lat="45.53737" lon="2.68519">
        <ele>1043</ele>
        <time>2014-08-04T13:30:57Z</time>
      </trkpt>
      <trkpt lat="45.53731" lon="2.68527">
        <ele>1047</ele>
        <time>2014-08-04T13:31:21Z</time>
      </trkpt>
      <trkpt lat="45.53723" lon="2.6853">
        <ele>1046</ele>
        <time>2014-08-04T13:31:30Z</time>
      </trkpt>
      <trkpt lat="45.53721" lon="2.68542">
        <ele>1042</ele>
        <time>2014-08-04T13:31:56Z</time>
      </trkpt>
      <trkpt lat="45.53724" lon="2.68554">
        <ele>1043</ele>
        <time>2014-08-04T13:32:15Z</time>
      </trkpt>
      <trkpt lat="45.53728" lon="2.68565">
        <ele>1046</ele>
        <time>2014-08-04T13:32:36Z</time>
      </trkpt>
      <trkpt lat="45.53732" lon="2.68573">
        <ele>1054</ele>
        <time>2014-08-04T13:33:08Z</time>
      </trkpt>
      <trkpt lat="45.53738" lon="2.68581">
        <ele>1060</ele>
        <time>2014-08-04T13:33:22Z</time>
      </trkpt>
      <trkpt lat="45.53743" lon="2.68591">
        <ele>1062</ele>
        <time>2014-08-04T13:33:30Z</time>
      </trkpt>
      <trkpt lat="45.5375" lon="2.68598">
        <ele>1064</ele>
        <time>2014-08-04T13:33:42Z</time>
      </trkpt>
      <trkpt lat="45.53759" lon="2.68602">
        <ele>1062</ele>
        <time>2014-08-04T13:33:57Z</time>
      </trkpt>
      <trkpt lat="45.53768" lon="2.68601">
        <ele>1065</ele>
        <time>2014-08-04T13:34:09Z</time>
      </trkpt>
      <trkpt lat="45.53776" lon="2.68598">
        <ele>1065</ele>
        <time>2014-08-04T13:34:20Z</time>
      </trkpt>
      <trkpt lat="45.53784" lon="2.68591">
        <ele>1065</ele>
        <time>2014-08-04T13:34:30Z</time>
      </trkpt>
      <trkpt lat="45.53792" lon="2.68587">
        <ele>1070</ele>
        <time>2014-08-04T13:34:51Z</time>
      </trkpt>
      <trkpt lat="45.538" lon="2.68584">
        <ele>1071</ele>
        <time>2014-08-04T13:35:01Z</time>
      </trkpt>
      <trkpt lat="45.53808" lon="2.68587">
        <ele>1074</ele>
        <time>2014-08-04T13:35:09Z</time>
      </trkpt>
      <trkpt lat="45.53815" lon="2.68594">
        <ele>1076</ele>
        <time>2014-08-04T13:35:18Z</time>
      </trkpt>
      <trkpt lat="45.53817" lon="2.68606">
        <ele>1072</ele>
        <time>2014-08-04T13:35:31Z</time>
      </trkpt>
      <trkpt lat="45.53813" lon="2.68618">
        <ele>1076</ele>
        <time>2014-08-04T13:35:48Z</time>
      </trkpt>
      <trkpt lat="45.53805" lon="2.68622">
        <ele>1085</ele>
        <time>2014-08-04T13:36:01Z</time>
      </trkpt>
      <trkpt lat="45.538" lon="2.6863">
        <ele>1088</ele>
        <time>2014-08-04T13:36:14Z</time>
      </trkpt>
      <trkpt lat="45.53795" lon="2.68639">
        <ele>1089</ele>
        <time>2014-08-04T13:36:21Z</time>
      </trkpt>
      <trkpt lat="45.53787" lon="2.68642">
        <ele>1094</ele>
        <time>2014-08-04T13:36:30Z</time>
      </trkpt>
      <trkpt lat="45.53778" lon="2.68644">
        <ele>1094</ele>
        <time>2014-08-04T13:36:45Z</time>
      </trkpt>
      <trkpt lat="45.53778" lon="2.68632">
        <ele>1091</ele>
        <time>2014-08-04T13:36:55Z</time>
      </trkpt>
      <trkpt lat="45.53784" lon="2.68641">
        <ele>1088</ele>
        <time>2014-08-04T13:40:55Z</time>
      </trkpt>
      <trkpt lat="45.53792" lon="2.68639">
        <ele>1090</ele>
        <time>2014-08-04T13:41:29Z</time>
      </trkpt>
      <trkpt lat="45.538" lon="2.68634">
        <ele>1087</ele>
        <time>2014-08-04T13:41:50Z</time>
      </trkpt>
      <trkpt lat="45.53807" lon="2.68628">
        <ele>1089</ele>
        <time>2014-08-04T13:42:03Z</time>
      </trkpt>
      <trkpt lat="45.53811" lon="2.68618">
        <ele>1087</ele>
        <time>2014-08-04T13:42:14Z</time>
      </trkpt>
      <trkpt lat="45.53814" lon="2.68608">
        <ele>1087</ele>
        <time>2014-08-04T13:42:26Z</time>
      </trkpt>
      <trkpt lat="45.53812" lon="2.68596">
        <ele>1085</ele>
        <time>2014-08-04T13:42:36Z</time>
      </trkpt>
      <trkpt lat="45.53804" lon="2.68589">
        <ele>1083</ele>
        <time>2014-08-04T13:42:47Z</time>
      </trkpt>
      <trkpt lat="45.53796" lon="2.68591">
        <ele>1082</ele>
        <time>2014-08-04T13:43:07Z</time>
      </trkpt>
      <trkpt lat="45.53788" lon="2.68596">
        <ele>1079</ele>
        <time>2014-08-04T13:43:58Z</time>
      </trkpt>
      <trkpt lat="45.53781" lon="2.68602">
        <ele>1077</ele>
        <time>2014-08-04T13:44:09Z</time>
      </trkpt>
      <trkpt lat="45.53772" lon="2.68604">
        <ele>1070</ele>
        <time>2014-08-04T13:44:18Z</time>
      </trkpt>
      <trkpt lat="45.53764" lon="2.68609">
        <ele>1067</ele>
        <time>2014-08-04T13:44:30Z</time>
      </trkpt>
      <trkpt lat="45.53756" lon="2.68608">
        <ele>1066</ele>
        <time>2014-08-04T13:44:41Z</time>
      </trkpt>
      <trkpt lat="45.53748" lon="2.68603">
        <ele>1065</ele>
        <time>2014-08-04T13:44:52Z</time>
      </trkpt>
      <trkpt lat="45.53742" lon="2.68595">
        <ele>1060</ele>
        <time>2014-08-04T13:45:05Z</time>
      </trkpt>
      <trkpt lat="45.53747" lon="2.68586">
        <ele>1060</ele>
        <time>2014-08-04T13:45:16Z</time>
      </trkpt>
      <trkpt lat="45.53755" lon="2.68581">
        <ele>1057</ele>
        <time>2014-08-04T13:45:26Z</time>
      </trkpt>
      <trkpt lat="45.5375" lon="2.68591">
        <ele>1060</ele>
        <time>2014-08-04T13:46:30Z</time>
      </trkpt>
      <trkpt lat="45.53742" lon="2.68588">
        <ele>1056</ele>
        <time>2014-08-04T13:46:39Z</time>
      </trkpt>
      <trkpt lat="45.53736" lon="2.68583">
        <ele>1053</ele>
        <time>2014-08-04T13:46:54Z</time>
      </trkpt>
      <trkpt lat="45.53728" lon="2.68579">
        <ele>1051</ele>
        <time>2014-08-04T13:47:00Z</time>
      </trkpt>
      <trkpt lat="45.53721" lon="2.68571">
        <ele>1061</ele>
        <time>2014-08-04T13:47:15Z</time>
      </trkpt>
      <trkpt lat="45.53723" lon="2.6856">
        <ele>1059</ele>
        <time>2014-08-04T13:47:31Z</time>
      </trkpt>
      <trkpt lat="45.53717" lon="2.68553">
        <ele>1058</ele>
        <time>2014-08-04T13:47:42Z</time>
      </trkpt>
      <trkpt lat="45.53717" lon="2.6854">
        <ele>1055</ele>
        <time>2014-08-04T13:47:54Z</time>
      </trkpt>
      <trkpt lat="45.53718" lon="2.68528">
        <ele>1054</ele>
        <time>2014-08-04T13:48:10Z</time>
      </trkpt>
      <trkpt lat="45.53721" lon="2.68518">
        <ele>1050</ele>
        <time>2014-08-04T13:48:21Z</time>
      </trkpt>
      <trkpt lat="45.53728" lon="2.68512">
        <ele>1052</ele>
        <time>2014-08-04T13:48:31Z</time>
      </trkpt>
      <trkpt lat="45.53735" lon="2.68506">
        <ele>1053</ele>
        <time>2014-08-04T13:48:42Z</time>
      </trkpt>
      <trkpt lat="45.53727" lon="2.68504">
        <ele>1047</ele>
        <time>2014-08-04T13:49:24Z</time>
      </trkpt>
      <trkpt lat="45.53722" lon="2.68493">
        <ele>1046</ele>
        <time>2014-08-04T13:49:34Z</time>
      </trkpt>
      <trkpt lat="45.53727" lon="2.68485">
        <ele>1045</ele>
        <time>2014-08-04T13:49:43Z</time>
      </trkpt>
      <trkpt lat="45.53732" lon="2.68476">
        <ele>1047</ele>
        <time>2014-08-04T13:49:52Z</time>
      </trkpt>
      <trkpt lat="45.53728" lon="2.68465">
        <ele>1036</ele>
        <time>2014-08-04T13:50:33Z</time>
      </trkpt>
      <trkpt lat="45.53732" lon="2.68455">
        <ele>1036</ele>
        <time>2014-08-04T13:50:39Z</time>
      </trkpt>
      <trkpt lat="45.53733" lon="2.68443">
        <ele>1034</ele>
        <time>2014-08-04T13:50:44Z</time>
      </trkpt>
      <trkpt lat="45.5374" lon="2.68435">
        <ele>1027</ele>
        <time>2014-08-04T13:50:52Z</time>
      </trkpt>
      <trkpt lat="45.53748" lon="2.68429">
        <ele>1027</ele>
        <time>2014-08-04T13:51:00Z</time>
      </trkpt>
      <trkpt lat="45.53755" lon="2.68425">
        <ele>1026</ele>
        <time>2014-08-04T13:51:10Z</time>
      </trkpt>
      <trkpt lat="45.53759" lon="2.68414">
        <ele>1024</ele>
        <time>2014-08-04T13:51:25Z</time>
      </trkpt>
      <trkpt lat="45.53763" lon="2.68404">
        <ele>1017</ele>
        <time>2014-08-04T13:52:15Z</time>
      </trkpt>
      <trkpt lat="45.5377" lon="2.68397">
        <ele>1016</ele>
        <time>2014-08-04T13:52:26Z</time>
      </trkpt>
      <trkpt lat="45.53778" lon="2.684">
        <ele>1014</ele>
        <time>2014-08-04T13:52:33Z</time>
      </trkpt>
      <trkpt lat="45.53787" lon="2.68398">
        <ele>1017</ele>
        <time>2014-08-04T13:52:47Z</time>
      </trkpt>
      <trkpt lat="45.53796" lon="2.68397">
        <ele>1018</ele>
        <time>2014-08-04T13:52:57Z</time>
      </trkpt>
      <trkpt lat="45.53804" lon="2.68394">
        <ele>1017</ele>
        <time>2014-08-04T13:53:06Z</time>
      </trkpt>
      <trkpt lat="45.53813" lon="2.68393">
        <ele>1016</ele>
        <time>2014-08-04T13:53:18Z</time>
      </trkpt>
      <trkpt lat="45.53821" lon="2.68393">
        <ele>1019</ele>
        <time>2014-08-04T13:53:28Z</time>
      </trkpt>
      <trkpt lat="45.53828" lon="2.68389">
        <ele>1018</ele>
        <time>2014-08-04T13:53:49Z</time>
      </trkpt>
      <trkpt lat="45.53837" lon="2.68391">
        <ele>1017</ele>
        <time>2014-08-04T13:53:54Z</time>
      </trkpt>
      <trkpt lat="45.53844" lon="2.68386">
        <ele>1013</ele>
        <time>2014-08-04T13:54:05Z</time>
      </trkpt>
      <trkpt lat="45.53851" lon="2.68384">
        <ele>1008</ele>
        <time>2014-08-04T13:55:01Z</time>
      </trkpt>
      <trkpt lat="45.53861" lon="2.68385">
        <ele>1010</ele>
        <time>2014-08-04T13:55:05Z</time>
      </trkpt>
      <trkpt lat="45.53868" lon="2.6838">
        <ele>1013</ele>
        <time>2014-08-04T13:55:10Z</time>
      </trkpt>
      <trkpt lat="45.53876" lon="2.68377">
        <ele>1016</ele>
        <time>2014-08-04T13:55:19Z</time>
      </trkpt>
      <trkpt lat="45.53883" lon="2.68372">
        <ele>1018</ele>
        <time>2014-08-04T13:55:25Z</time>
      </trkpt>
      <trkpt lat="45.53891" lon="2.68367">
        <ele>1022</ele>
        <time>2014-08-04T13:55:43Z</time>
      </trkpt>
      <trkpt lat="45.53897" lon="2.6836">
        <ele>1023</ele>
        <time>2014-08-04T13:55:56Z</time>
      </trkpt>
      <trkpt lat="45.53901" lon="2.68349">
        <ele>1031</ele>
        <time>2014-08-04T13:56:06Z</time>
      </trkpt>
      <trkpt lat="45.53905" lon="2.68339">
        <ele>1031</ele>
        <time>2014-08-04T13:56:13Z</time>
      </trkpt>
      <trkpt lat="45.53912" lon="2.68334">
        <ele>1027</ele>
        <time>2014-08-04T13:56:18Z</time>
      </trkpt>
      <trkpt lat="45.5392" lon="2.68329">
        <ele>1027</ele>
        <time>2014-08-04T13:56:27Z</time>
      </trkpt>
      <trkpt lat="45.53927" lon="2.68324">
        <ele>1026</ele>
        <time>2014-08-04T13:56:35Z</time>
      </trkpt>
      <trkpt lat="45.53933" lon="2.68314">
        <ele>1025</ele>
        <time>2014-08-04T13:56:46Z</time>
      </trkpt>
      <trkpt lat="45.53942" lon="2.68312">
        <ele>1016</ele>
        <time>2014-08-04T13:56:57Z</time>
      </trkpt>
      <trkpt lat="45.53948" lon="2.68302">
        <ele>1015</ele>
        <time>2014-08-04T13:57:04Z</time>
      </trkpt>
      <trkpt lat="45.53954" lon="2.68299">
        <ele>1014</ele>
        <time>2014-08-04T13:57:12Z</time>
      </trkpt>
      <trkpt lat="45.53961" lon="2.68291">
        <ele>1015</ele>
        <time>2014-08-04T13:57:20Z</time>
      </trkpt>
      <trkpt lat="45.53968" lon="2.68284">
        <ele>1016</ele>
        <time>2014-08-04T13:57:31Z</time>
      </trkpt>
      <trkpt lat="45.53976" lon="2.68278">
        <ele>1010</ele>
        <time>2014-08-04T13:57:38Z</time>
      </trkpt>
      <trkpt lat="45.53977" lon="2.68266">
        <ele>1009</ele>
        <time>2014-08-04T13:57:57Z</time>
      </trkpt>
      <trkpt lat="45.5398" lon="2.68254">
        <ele>1006</ele>
        <time>2014-08-04T13:58:03Z</time>
      </trkpt>
      <trkpt lat="45.53984" lon="2.68244">
        <ele>1004</ele>
        <time>2014-08-04T13:58:10Z</time>
      </trkpt>
      <trkpt lat="45.53984" lon="2.68256">
        <ele>1013</ele>
        <time>2014-08-04T13:58:40Z</time>
      </trkpt>
      <trkpt lat="45.53984" lon="2.68267">
        <ele>1014</ele>
        <time>2014-08-04T13:58:46Z</time>
      </trkpt>
      <trkpt lat="45.53987" lon="2.68277">
        <ele>1012</ele>
        <time>2014-08-04T13:58:52Z</time>
      </trkpt>
      <trkpt lat="45.53983" lon="2.68289">
        <ele>1017</ele>
        <time>2014-08-04T13:58:59Z</time>
      </trkpt>
      <trkpt lat="45.53978" lon="2.68299">
        <ele>1020</ele>
        <time>2014-08-04T13:59:25Z</time>
      </trkpt>
      <trkpt lat="45.53984" lon="2.68311">
        <ele>1021</ele>
        <time>2014-08-04T13:59:30Z</time>
      </trkpt>
      <trkpt lat="45.53982" lon="2.68322">
        <ele>1017</ele>
        <time>2014-08-04T13:59:39Z</time>
      </trkpt>
      <trkpt lat="45.53986" lon="2.68334">
        <ele>1010</ele>
        <time>2014-08-04T13:59:55Z</time>
      </trkpt>
      <trkpt lat="45.53992" lon="2.68343">
        <ele>1011</ele>
        <time>2014-08-04T14:00:09Z</time>
      </trkpt>
      <trkpt lat="45.53999" lon="2.68351">
        <ele>1017</ele>
        <time>2014-08-04T14:00:21Z</time>
      </trkpt>
      <trkpt lat="45.54007" lon="2.68352">
        <ele>1024</ele>
        <time>2014-08-04T14:00:44Z</time>
      </trkpt>
      <trkpt lat="45.54014" lon="2.68358">
        <ele>1027</ele>
        <time>2014-08-04T14:00:52Z</time>
      </trkpt>
      <trkpt lat="45.54021" lon="2.68364">
        <ele>1028</ele>
        <time>2014-08-04T14:00:58Z</time>
      </trkpt>
      <trkpt lat="45.54025" lon="2.68373">
        <ele>1029</ele>
        <time>2014-08-04T14:01:08Z</time>
      </trkpt>
      <trkpt lat="45.54031" lon="2.68383">
        <ele>1028</ele>
        <time>2014-08-04T14:01:16Z</time>
      </trkpt>
      <trkpt lat="45.54033" lon="2.68395">
        <ele>1027</ele>
        <time>2014-08-04T14:01:25Z</time>
      </trkpt>
      <trkpt lat="45.54039" lon="2.68401">
        <ele>1025</ele>
        <time>2014-08-04T14:01:32Z</time>
      </trkpt>
      <trkpt lat="45.54048" lon="2.68403">
        <ele>1026</ele>
        <time>2014-08-04T14:01:46Z</time>
      </trkpt>
      <trkpt lat="45.54054" lon="2.6841">
        <ele>1028</ele>
        <time>2014-08-04T14:01:56Z</time>
      </trkpt>
      <trkpt lat="45.54059" lon="2.68418">
        <ele>1030</ele>
        <time>2014-08-04T14:02:05Z</time>
      </trkpt>
      <trkpt lat="45.54067" lon="2.68423">
        <ele>1031</ele>
        <time>2014-08-04T14:02:12Z</time>
      </trkpt>
      <trkpt lat="45.54075" lon="2.68427">
        <ele>1032</ele>
        <time>2014-08-04T14:02:21Z</time>
      </trkpt>
      <trkpt lat="45.54083" lon="2.6843">
        <ele>1033</ele>
        <time>2014-08-04T14:02:29Z</time>
      </trkpt>
      <trkpt lat="45.54091" lon="2.68435">
        <ele>1037</ele>
        <time>2014-08-04T14:02:40Z</time>
      </trkpt>
      <trkpt lat="45.54098" lon="2.68441">
        <ele>1037</ele>
        <time>2014-08-04T14:02:49Z</time>
      </trkpt>
      <trkpt lat="45.54104" lon="2.68446">
        <ele>1035</ele>
        <time>2014-08-04T14:02:55Z</time>
      </trkpt>
      <trkpt lat="45.54112" lon="2.68458">
        <ele>1028</ele>
        <time>2014-08-04T14:02:59Z</time>
      </trkpt>
      <trkpt lat="45.54118" lon="2.68464">
        <ele>1021</ele>
        <time>2014-08-04T14:03:09Z</time>
      </trkpt>
      <trkpt lat="45.54126" lon="2.68469">
        <ele>1017</ele>
        <time>2014-08-04T14:03:44Z</time>
      </trkpt>
      <trkpt lat="45.54133" lon="2.68475">
        <ele>1016</ele>
        <time>2014-08-04T14:03:50Z</time>
      </trkpt>
      <trkpt lat="45.54139" lon="2.68483">
        <ele>1017</ele>
        <time>2014-08-04T14:03:57Z</time>
      </trkpt>
      <trkpt lat="45.54146" lon="2.68491">
        <ele>1019</ele>
        <time>2014-08-04T14:04:06Z</time>
      </trkpt>
      <trkpt lat="45.54153" lon="2.68498">
        <ele>1023</ele>
        <time>2014-08-04T14:04:17Z</time>
      </trkpt>
      <trkpt lat="45.5416" lon="2.68505">
        <ele>1026</ele>
        <time>2014-08-04T14:04:27Z</time>
      </trkpt>
      <trkpt lat="45.54166" lon="2.68512">
        <ele>1024</ele>
        <time>2014-08-04T14:04:34Z</time>
      </trkpt>
      <trkpt lat="45.5417" lon="2.68521">
        <ele>1022</ele>
        <time>2014-08-04T14:04:43Z</time>
      </trkpt>
      <trkpt lat="45.54174" lon="2.68533">
        <ele>1024</ele>
        <time>2014-08-04T14:04:50Z</time>
      </trkpt>
      <trkpt lat="45.54178" lon="2.68542">
        <ele>1022</ele>
        <time>2014-08-04T14:04:57Z</time>
      </trkpt>
      <trkpt lat="45.54182" lon="2.68552">
        <ele>1022</ele>
        <time>2014-08-04T14:05:20Z</time>
      </trkpt>
      <trkpt lat="45.54186" lon="2.68563">
        <ele>1019</ele>
        <time>2014-08-04T14:05:25Z</time>
      </trkpt>
      <trkpt lat="45.54191" lon="2.68572">
        <ele>1024</ele>
        <time>2014-08-04T14:05:36Z</time>
      </trkpt>
      <trkpt lat="45.54197" lon="2.68581">
        <ele>1026</ele>
        <time>2014-08-04T14:05:51Z</time>
      </trkpt>
      <trkpt lat="45.54202" lon="2.68591">
        <ele>1035</ele>
        <time>2014-08-04T14:06:12Z</time>
      </trkpt>
      <trkpt lat="45.54208" lon="2.68599">
        <ele>1034</ele>
        <time>2014-08-04T14:06:20Z</time>
      </trkpt>
      <trkpt lat="45.54213" lon="2.68609">
        <ele>1033</ele>
        <time>2014-08-04T14:06:25Z</time>
      </trkpt>
      <trkpt lat="45.54211" lon="2.6862">
        <ele>1032</ele>
        <time>2014-08-04T14:06:37Z</time>
      </trkpt>
      <trkpt lat="45.54218" lon="2.68623">
        <ele>1023</ele>
        <time>2014-08-04T14:07:45Z</time>
      </trkpt>
      <trkpt lat="45.54223" lon="2.68621">
        <ele>1015</ele>
        <time>2014-08-04T14:08:19Z</time>
      </trkpt>
      <trkpt lat="45.54236" lon="2.68618">
        <ele>1020</ele>
        <time>2014-08-04T14:08:23Z</time>
      </trkpt>
      <trkpt lat="45.54243" lon="2.68618">
        <ele>1021</ele>
        <time>2014-08-04T14:08:27Z</time>
      </trkpt>
      <trkpt lat="45.54252" lon="2.68619">
        <ele>1022</ele>
        <time>2014-08-04T14:08:32Z</time>
      </trkpt>
      <trkpt lat="45.54261" lon="2.68619">
        <ele>1025</ele>
        <time>2014-08-04T14:08:48Z</time>
      </trkpt>
      <trkpt lat="45.54268" lon="2.68618">
        <ele>1025</ele>
        <time>2014-08-04T14:09:04Z</time>
      </trkpt>
      <trkpt lat="45.54277" lon="2.68616">
        <ele>1026</ele>
        <time>2014-08-04T14:09:21Z</time>
      </trkpt>
      <trkpt lat="45.54285" lon="2.68617">
        <ele>1025</ele>
        <time>2014-08-04T14:09:32Z</time>
      </trkpt>
      <trkpt lat="45.54293" lon="2.68618">
        <ele>1027</ele>
        <time>2014-08-04T14:09:44Z</time>
      </trkpt>
      <trkpt lat="45.543" lon="2.68626">
        <ele>1032</ele>
        <time>2014-08-04T14:10:02Z</time>
      </trkpt>
      <trkpt lat="45.54306" lon="2.68634">
        <ele>1033</ele>
        <time>2014-08-04T14:10:27Z</time>
      </trkpt>
      <trkpt lat="45.54315" lon="2.68637">
        <ele>1034</ele>
        <time>2014-08-04T14:10:32Z</time>
      </trkpt>
      <trkpt lat="45.54323" lon="2.6864">
        <ele>1038</ele>
        <time>2014-08-04T14:10:42Z</time>
      </trkpt>
      <trkpt lat="45.54331" lon="2.68645">
        <ele>1040</ele>
        <time>2014-08-04T14:10:52Z</time>
      </trkpt>
      <trkpt lat="45.54338" lon="2.6865">
        <ele>1041</ele>
        <time>2014-08-04T14:11:01Z</time>
      </trkpt>
      <trkpt lat="45.54346" lon="2.68656">
        <ele>1040</ele>
        <time>2014-08-04T14:11:09Z</time>
      </trkpt>
      <trkpt lat="45.54353" lon="2.68662">
        <ele>1041</ele>
        <time>2014-08-04T14:11:26Z</time>
      </trkpt>
      <trkpt lat="45.5436" lon="2.68669">
        <ele>1049</ele>
        <time>2014-08-04T14:11:40Z</time>
      </trkpt>
      <trkpt lat="45.54366" lon="2.68677">
        <ele>1054</ele>
        <time>2014-08-04T14:11:50Z</time>
      </trkpt>
      <trkpt lat="45.54372" lon="2.68684">
        <ele>1053</ele>
        <time>2014-08-04T14:12:01Z</time>
      </trkpt>
      <trkpt lat="45.54376" lon="2.68694">
        <ele>1050</ele>
        <time>2014-08-04T14:12:19Z</time>
      </trkpt>
      <trkpt lat="45.54378" lon="2.68707">
        <ele>1051</ele>
        <time>2014-08-04T14:12:26Z</time>
      </trkpt>
      <trkpt lat="45.54377" lon="2.68719">
        <ele>1056</ele>
        <time>2014-08-04T14:12:36Z</time>
      </trkpt>
      <trkpt lat="45.54381" lon="2.6873">
        <ele>1052</ele>
        <time>2014-08-04T14:12:44Z</time>
      </trkpt>
      <trkpt lat="45.54383" lon="2.68742">
        <ele>1052</ele>
        <time>2014-08-04T14:12:53Z</time>
      </trkpt>
      <trkpt lat="45.54387" lon="2.68752">
        <ele>1049</ele>
        <time>2014-08-04T14:13:01Z</time>
      </trkpt>
      <trkpt lat="45.54388" lon="2.68764">
        <ele>1051</ele>
        <time>2014-08-04T14:13:10Z</time>
      </trkpt>
      <trkpt lat="45.5439" lon="2.68774">
        <ele>1054</ele>
        <time>2014-08-04T14:13:18Z</time>
      </trkpt>
      <trkpt lat="45.54393" lon="2.68785">
        <ele>1057</ele>
        <time>2014-08-04T14:13:26Z</time>
      </trkpt>
      <trkpt lat="45.54395" lon="2.68797">
        <ele>1057</ele>
        <time>2014-08-04T14:13:34Z</time>
      </trkpt>
      <trkpt lat="45.54396" lon="2.68809">
        <ele>1057</ele>
        <time>2014-08-04T14:13:42Z</time>
      </trkpt>
      <trkpt lat="45.54394" lon="2.68821">
        <ele>1057</ele>
        <time>2014-08-04T14:13:51Z</time>
      </trkpt>
      <trkpt lat="45.54392" lon="2.68833">
        <ele>1058</ele>
        <time>2014-08-04T14:14:00Z</time>
      </trkpt>
      <trkpt lat="45.54392" lon="2.68845">
        <ele>1056</ele>
        <time>2014-08-04T14:14:09Z</time>
      </trkpt>
      <trkpt lat="45.54392" lon="2.68856">
        <ele>1058</ele>
        <time>2014-08-04T14:14:17Z</time>
      </trkpt>
      <trkpt lat="45.54393" lon="2.68869">
        <ele>1057</ele>
        <time>2014-08-04T14:14:25Z</time>
      </trkpt>
      <trkpt lat="45.54395" lon="2.6888">
        <ele>1056</ele>
        <time>2014-08-04T14:14:34Z</time>
      </trkpt>
      <trkpt lat="45.54393" lon="2.68893">
        <ele>1058</ele>
        <time>2014-08-04T14:14:45Z</time>
      </trkpt>
      <trkpt lat="45.54391" lon="2.68904">
        <ele>1062</ele>
        <time>2014-08-04T14:14:56Z</time>
      </trkpt>
      <trkpt lat="45.54387" lon="2.68915">
        <ele>1072</ele>
        <time>2014-08-04T14:15:05Z</time>
      </trkpt>
      <trkpt lat="45.54389" lon="2.68926">
        <ele>1074</ele>
        <time>2014-08-04T14:15:15Z</time>
      </trkpt>
      <trkpt lat="45.54392" lon="2.68936">
        <ele>1074</ele>
        <time>2014-08-04T14:15:28Z</time>
      </trkpt>
      <trkpt lat="45.54394" lon="2.68946">
        <ele>1072</ele>
        <time>2014-08-04T14:15:33Z</time>
      </trkpt>
      <trkpt lat="45.544" lon="2.68956">
        <ele>1068</ele>
        <time>2014-08-04T14:15:39Z</time>
      </trkpt>
      <trkpt lat="45.54405" lon="2.68964">
        <ele>1066</ele>
        <time>2014-08-04T14:15:47Z</time>
      </trkpt>
      <trkpt lat="45.5441" lon="2.68972">
        <ele>1058</ele>
        <time>2014-08-04T14:15:54Z</time>
      </trkpt>
      <trkpt lat="45.54414" lon="2.68984">
        <ele>1062</ele>
        <time>2014-08-04T14:16:06Z</time>
      </trkpt>
      <trkpt lat="45.54418" lon="2.68996">
        <ele>1063</ele>
        <time>2014-08-04T14:16:17Z</time>
      </trkpt>
      <trkpt lat="45.5442" lon="2.69007">
        <ele>1062</ele>
        <time>2014-08-04T14:16:29Z</time>
      </trkpt>
      <trkpt lat="45.54423" lon="2.69018">
        <ele>1063</ele>
        <time>2014-08-04T14:16:40Z</time>
      </trkpt>
      <trkpt lat="45.54423" lon="2.6903">
        <ele>1064</ele>
        <time>2014-08-04T14:16:53Z</time>
      </trkpt>
      <trkpt lat="45.54417" lon="2.6904">
        <ele>1062</ele>
        <time>2014-08-04T14:17:03Z</time>
      </trkpt>
      <trkpt lat="45.54411" lon="2.69049">
        <ele>1061</ele>
        <time>2014-08-04T14:17:11Z</time>
      </trkpt>
      <trkpt lat="45.54406" lon="2.69057">
        <ele>1063</ele>
        <time>2014-08-04T14:17:21Z</time>
      </trkpt>
      <trkpt lat="45.54402" lon="2.69068">
        <ele>1062</ele>
        <time>2014-08-04T14:17:29Z</time>
      </trkpt>
      <trkpt lat="45.54397" lon="2.69078">
        <ele>1063</ele>
        <time>2014-08-04T14:17:38Z</time>
      </trkpt>
      <trkpt lat="45.54393" lon="2.69089">
        <ele>1064</ele>
        <time>2014-08-04T14:17:47Z</time>
      </trkpt>
      <trkpt lat="45.54389" lon="2.69101">
        <ele>1065</ele>
        <time>2014-08-04T14:17:56Z</time>
      </trkpt>
      <trkpt lat="45.54385" lon="2.69111">
        <ele>1066</ele>
        <time>2014-08-04T14:18:04Z</time>
      </trkpt>
      <trkpt lat="45.54381" lon="2.69122">
        <ele>1066</ele>
        <time>2014-08-04T14:18:13Z</time>
      </trkpt>
      <trkpt lat="45.54374" lon="2.6913">
        <ele>1067</ele>
        <time>2014-08-04T14:18:21Z</time>
      </trkpt>
      <trkpt lat="45.5437" lon="2.69141">
        <ele>1068</ele>
        <time>2014-08-04T14:18:29Z</time>
      </trkpt>
      <trkpt lat="45.54366" lon="2.69152">
        <ele>1065</ele>
        <time>2014-08-04T14:18:39Z</time>
      </trkpt>
      <trkpt lat="45.54363" lon="2.69164">
        <ele>1061</ele>
        <time>2014-08-04T14:18:50Z</time>
      </trkpt>
      <trkpt lat="45.54358" lon="2.69174">
        <ele>1060</ele>
        <time>2014-08-04T14:18:59Z</time>
      </trkpt>
      <trkpt lat="45.54353" lon="2.69185">
        <ele>1063</ele>
        <time>2014-08-04T14:19:05Z</time>
      </trkpt>
      <trkpt lat="45.5435" lon="2.69196">
        <ele>1064</ele>
        <time>2014-08-04T14:19:15Z</time>
      </trkpt>
      <trkpt lat="45.54344" lon="2.69205">
        <ele>1063</ele>
        <time>2014-08-04T14:19:23Z</time>
      </trkpt>
      <trkpt lat="45.54338" lon="2.69215">
        <ele>1063</ele>
        <time>2014-08-04T14:19:30Z</time>
      </trkpt>
      <trkpt lat="45.54334" lon="2.69226">
        <ele>1064</ele>
        <time>2014-08-04T14:19:39Z</time>
      </trkpt>
      <trkpt lat="45.54328" lon="2.69235">
        <ele>1064</ele>
        <time>2014-08-04T14:19:47Z</time>
      </trkpt>
      <trkpt lat="45.54323" lon="2.69242">
        <ele>1064</ele>
        <time>2014-08-04T14:19:54Z</time>
      </trkpt>
      <trkpt lat="45.54316" lon="2.6925">
        <ele>1066</ele>
        <time>2014-08-04T14:20:06Z</time>
      </trkpt>
      <trkpt lat="45.5431" lon="2.69258">
        <ele>1069</ele>
        <time>2014-08-04T14:20:14Z</time>
      </trkpt>
      <trkpt lat="45.54305" lon="2.69268">
        <ele>1068</ele>
        <time>2014-08-04T14:20:22Z</time>
      </trkpt>
      <trkpt lat="45.543" lon="2.69276">
        <ele>1070</ele>
        <time>2014-08-04T14:20:29Z</time>
      </trkpt>
      <trkpt lat="45.54297" lon="2.69287">
        <ele>1070</ele>
        <time>2014-08-04T14:20:37Z</time>
      </trkpt>
      <trkpt lat="45.54293" lon="2.69299">
        <ele>1070</ele>
        <time>2014-08-04T14:20:45Z</time>
      </trkpt>
      <trkpt lat="45.54288" lon="2.69308">
        <ele>1072</ele>
        <time>2014-08-04T14:20:53Z</time>
      </trkpt>
      <trkpt lat="45.54284" lon="2.69319">
        <ele>1074</ele>
        <time>2014-08-04T14:21:03Z</time>
      </trkpt>
      <trkpt lat="45.54285" lon="2.69331">
        <ele>1073</ele>
        <time>2014-08-04T14:21:18Z</time>
      </trkpt>
      <trkpt lat="45.5428" lon="2.69339">
        <ele>1077</ele>
        <time>2014-08-04T14:21:29Z</time>
      </trkpt>
      <trkpt lat="45.54271" lon="2.6934">
        <ele>1083</ele>
        <time>2014-08-04T14:21:45Z</time>
      </trkpt>
      <trkpt lat="45.54263" lon="2.69344">
        <ele>1079</ele>
        <time>2014-08-04T14:21:54Z</time>
      </trkpt>
      <trkpt lat="45.54255" lon="2.6935">
        <ele>1072</ele>
        <time>2014-08-04T14:22:11Z</time>
      </trkpt>
      <trkpt lat="45.54247" lon="2.69355">
        <ele>1071</ele>
        <time>2014-08-04T14:22:47Z</time>
      </trkpt>
      <trkpt lat="45.54239" lon="2.69361">
        <ele>1067</ele>
        <time>2014-08-04T14:22:54Z</time>
      </trkpt>
      <trkpt lat="45.54234" lon="2.69364">
        <ele>1067</ele>
        <time>2014-08-04T14:22:59Z</time>
      </trkpt>
      <trkpt lat="45.54227" lon="2.69365">
        <ele>1067</ele>
        <time>2014-08-04T14:23:03Z</time>
      </trkpt>
      <trkpt lat="45.54219" lon="2.69369">
        <ele>1067</ele>
        <time>2014-08-04T14:23:08Z</time>
      </trkpt>
      <trkpt lat="45.54211" lon="2.69371">
        <ele>1067</ele>
        <time>2014-08-04T14:23:15Z</time>
      </trkpt>
      <trkpt lat="45.54206" lon="2.69379">
        <ele>1067</ele>
        <time>2014-08-04T14:24:50Z</time>
      </trkpt>
      <trkpt lat="45.542" lon="2.69389">
        <ele>1065</ele>
        <time>2014-08-04T14:25:01Z</time>
      </trkpt>
      <trkpt lat="45.54191" lon="2.69388">
        <ele>1064</ele>
        <time>2014-08-04T14:25:18Z</time>
      </trkpt>
      <trkpt lat="45.5418" lon="2.69393">
        <ele>1061</ele>
        <time>2014-08-04T14:25:23Z</time>
      </trkpt>
      <trkpt lat="45.54172" lon="2.69397">
        <ele>1061</ele>
        <time>2014-08-04T14:25:30Z</time>
      </trkpt>
      <trkpt lat="45.54163" lon="2.69396">
        <ele>1065</ele>
        <time>2014-08-04T14:25:35Z</time>
      </trkpt>
      <trkpt lat="45.54155" lon="2.69392">
        <ele>1063</ele>
        <time>2014-08-04T14:25:44Z</time>
      </trkpt>
      <trkpt lat="45.54147" lon="2.69392">
        <ele>1060</ele>
        <time>2014-08-04T14:25:53Z</time>
      </trkpt>
      <trkpt lat="45.54139" lon="2.69387">
        <ele>1062</ele>
        <time>2014-08-04T14:26:01Z</time>
      </trkpt>
      <trkpt lat="45.54131" lon="2.69382">
        <ele>1065</ele>
        <time>2014-08-04T14:26:10Z</time>
      </trkpt>
      <trkpt lat="45.54124" lon="2.69376">
        <ele>1063</ele>
        <time>2014-08-04T14:26:18Z</time>
      </trkpt>
      <trkpt lat="45.54117" lon="2.69368">
        <ele>1062</ele>
        <time>2014-08-04T14:26:27Z</time>
      </trkpt>
      <trkpt lat="45.54111" lon="2.69358">
        <ele>1061</ele>
        <time>2014-08-04T14:26:51Z</time>
      </trkpt>
      <trkpt lat="45.54103" lon="2.6936">
        <ele>1062</ele>
        <time>2014-08-04T14:27:07Z</time>
      </trkpt>
      <trkpt lat="45.54097" lon="2.69368">
        <ele>1063</ele>
        <time>2014-08-04T14:27:32Z</time>
      </trkpt>
      <trkpt lat="45.54099" lon="2.6938">
        <ele>1062</ele>
        <time>2014-08-04T14:27:47Z</time>
      </trkpt>
      <trkpt lat="45.54094" lon="2.6939">
        <ele>1063</ele>
        <time>2014-08-04T14:27:56Z</time>
      </trkpt>
      <trkpt lat="45.54096" lon="2.69402">
        <ele>1063</ele>
        <time>2014-08-04T14:28:05Z</time>
      </trkpt>
      <trkpt lat="45.54097" lon="2.69414">
        <ele>1066</ele>
        <time>2014-08-04T14:28:17Z</time>
      </trkpt>
      <trkpt lat="45.54099" lon="2.69426">
        <ele>1067</ele>
        <time>2014-08-04T14:28:29Z</time>
      </trkpt>
      <trkpt lat="45.54098" lon="2.69439">
        <ele>1066</ele>
        <time>2014-08-04T14:28:38Z</time>
      </trkpt>
      <trkpt lat="45.54095" lon="2.6945">
        <ele>1069</ele>
        <time>2014-08-04T14:28:47Z</time>
      </trkpt>
      <trkpt lat="45.54096" lon="2.69461">
        <ele>1070</ele>
        <time>2014-08-04T14:30:34Z</time>
      </trkpt>
      <trkpt lat="45.54098" lon="2.69473">
        <ele>1069</ele>
        <time>2014-08-04T14:30:42Z</time>
      </trkpt>
      <trkpt lat="45.54096" lon="2.69485">
        <ele>1070</ele>
        <time>2014-08-04T14:30:51Z</time>
      </trkpt>
      <trkpt lat="45.54094" lon="2.69497">
        <ele>1071</ele>
        <time>2014-08-04T14:30:59Z</time>
      </trkpt>
      <trkpt lat="45.54092" lon="2.69508">
        <ele>1070</ele>
        <time>2014-08-04T14:31:08Z</time>
      </trkpt>
      <trkpt lat="45.54086" lon="2.69519">
        <ele>1070</ele>
        <time>2014-08-04T14:31:16Z</time>
      </trkpt>
      <trkpt lat="45.54082" lon="2.69528">
        <ele>1072</ele>
        <time>2014-08-04T14:31:24Z</time>
      </trkpt>
      <trkpt lat="45.54078" lon="2.6954">
        <ele>1072</ele>
        <time>2014-08-04T14:31:32Z</time>
      </trkpt>
      <trkpt lat="45.54073" lon="2.6955">
        <ele>1074</ele>
        <time>2014-08-04T14:31:41Z</time>
      </trkpt>
      <trkpt lat="45.54075" lon="2.69562">
        <ele>1074</ele>
        <time>2014-08-04T14:31:49Z</time>
      </trkpt>
      <trkpt lat="45.54075" lon="2.69574">
        <ele>1074</ele>
        <time>2014-08-04T14:31:59Z</time>
      </trkpt>
      <trkpt lat="45.54071" lon="2.69586">
        <ele>1076</ele>
        <time>2014-08-04T14:32:11Z</time>
      </trkpt>
      <trkpt lat="45.54073" lon="2.69598">
        <ele>1077</ele>
        <time>2014-08-04T14:32:26Z</time>
      </trkpt>
      <trkpt lat="45.54073" lon="2.6961">
        <ele>1077</ele>
        <time>2014-08-04T14:32:41Z</time>
      </trkpt>
      <trkpt lat="45.54071" lon="2.69621">
        <ele>1077</ele>
        <time>2014-08-04T14:32:50Z</time>
      </trkpt>
      <trkpt lat="45.54071" lon="2.69634">
        <ele>1078</ele>
        <time>2014-08-04T14:33:20Z</time>
      </trkpt>
      <trkpt lat="45.54068" lon="2.69645">
        <ele>1078</ele>
        <time>2014-08-04T14:33:29Z</time>
      </trkpt>
      <trkpt lat="45.54065" lon="2.69657">
        <ele>1081</ele>
        <time>2014-08-04T14:33:39Z</time>
      </trkpt>
      <trkpt lat="45.54065" lon="2.69669">
        <ele>1082</ele>
        <time>2014-08-04T14:33:51Z</time>
      </trkpt>
      <trkpt lat="45.54062" lon="2.6968">
        <ele>1083</ele>
        <time>2014-08-04T14:33:59Z</time>
      </trkpt>
      <trkpt lat="45.5406" lon="2.69692">
        <ele>1086</ele>
        <time>2014-08-04T14:34:07Z</time>
      </trkpt>
      <trkpt lat="45.54061" lon="2.69704">
        <ele>1088</ele>
        <time>2014-08-04T14:34:16Z</time>
      </trkpt>
      <trkpt lat="45.54061" lon="2.69716">
        <ele>1087</ele>
        <time>2014-08-04T14:34:25Z</time>
      </trkpt>
      <trkpt lat="45.54064" lon="2.69728">
        <ele>1087</ele>
        <time>2014-08-04T14:34:57Z</time>
      </trkpt>
      <trkpt lat="45.54069" lon="2.69736">
        <ele>1088</ele>
        <time>2014-08-04T14:35:03Z</time>
      </trkpt>
      <trkpt lat="45.54076" lon="2.69743">
        <ele>1088</ele>
        <time>2014-08-04T14:35:11Z</time>
      </trkpt>
      <trkpt lat="45.54075" lon="2.69755">
        <ele>1089</ele>
        <time>2014-08-04T14:35:19Z</time>
      </trkpt>
      <trkpt lat="45.5408" lon="2.69764">
        <ele>1090</ele>
        <time>2014-08-04T14:35:33Z</time>
      </trkpt>
      <trkpt lat="45.5408" lon="2.69777">
        <ele>1091</ele>
        <time>2014-08-04T14:35:55Z</time>
      </trkpt>
      <trkpt lat="45.5408" lon="2.69789">
        <ele>1097</ele>
        <time>2014-08-04T14:36:26Z</time>
      </trkpt>
      <trkpt lat="45.54079" lon="2.69801">
        <ele>1101</ele>
        <time>2014-08-04T14:36:55Z</time>
      </trkpt>
      <trkpt lat="45.54083" lon="2.69812">
        <ele>1100</ele>
        <time>2014-08-04T14:37:27Z</time>
      </trkpt>
      <trkpt lat="45.54085" lon="2.69825">
        <ele>1103</ele>
        <time>2014-08-04T14:37:56Z</time>
      </trkpt>
      <trkpt lat="45.54087" lon="2.69837">
        <ele>1105</ele>
        <time>2014-08-04T14:38:47Z</time>
      </trkpt>
      <trkpt lat="45.54088" lon="2.6985">
        <ele>1106</ele>
        <time>2014-08-04T14:39:23Z</time>
      </trkpt>
      <trkpt lat="45.54082" lon="2.69856">
        <ele>1109</ele>
        <time>2014-08-04T14:39:45Z</time>
      </trkpt>
      <trkpt lat="45.54076" lon="2.69865">
        <ele>1110</ele>
        <time>2014-08-04T14:40:15Z</time>
      </trkpt>
      <trkpt lat="45.54067" lon="2.69863">
        <ele>1109</ele>
        <time>2014-08-04T14:40:27Z</time>
      </trkpt>
      <trkpt lat="45.54061" lon="2.69858">
        <ele>1108</ele>
        <time>2014-08-04T14:40:34Z</time>
      </trkpt>
      <trkpt lat="45.54052" lon="2.69857">
        <ele>1108</ele>
        <time>2014-08-04T14:40:46Z</time>
      </trkpt>
      <trkpt lat="45.54044" lon="2.69851">
        <ele>1107</ele>
        <time>2014-08-04T14:40:55Z</time>
      </trkpt>
      <trkpt lat="45.54038" lon="2.6985">
        <ele>1105</ele>
        <time>2014-08-04T14:41:02Z</time>
      </trkpt>
      <trkpt lat="45.54031" lon="2.69844">
        <ele>1109</ele>
        <time>2014-08-04T14:41:07Z</time>
      </trkpt>
      <trkpt lat="45.54024" lon="2.69844">
        <ele>1097</ele>
        <time>2014-08-04T14:41:46Z</time>
      </trkpt>
      <trkpt lat="45.54015" lon="2.69843">
        <ele>1095</ele>
        <time>2014-08-04T14:41:52Z</time>
      </trkpt>
      <trkpt lat="45.54007" lon="2.69844">
        <ele>1093</ele>
        <time>2014-08-04T14:42:01Z</time>
      </trkpt>
      <trkpt lat="45.53999" lon="2.69842">
        <ele>1092</ele>
        <time>2014-08-04T14:42:11Z</time>
      </trkpt>
      <trkpt lat="45.5399" lon="2.69841">
        <ele>1093</ele>
        <time>2014-08-04T14:42:17Z</time>
      </trkpt>
      <trkpt lat="45.53982" lon="2.6984">
        <ele>1093</ele>
        <time>2014-08-04T14:42:26Z</time>
      </trkpt>
      <trkpt lat="45.53973" lon="2.69841">
        <ele>1081</ele>
        <time>2014-08-04T14:42:41Z</time>
      </trkpt>
      <trkpt lat="45.53965" lon="2.6984">
        <ele>1081</ele>
        <time>2014-08-04T14:42:48Z</time>
      </trkpt>
      <trkpt lat="45.53957" lon="2.69835">
        <ele>1086</ele>
        <time>2014-08-04T14:42:55Z</time>
      </trkpt>
      <trkpt lat="45.53949" lon="2.69836">
        <ele>1086</ele>
        <time>2014-08-04T14:43:03Z</time>
      </trkpt>
      <trkpt lat="45.53941" lon="2.69832">
        <ele>1086</ele>
        <time>2014-08-04T14:43:09Z</time>
      </trkpt>
      <trkpt lat="45.53933" lon="2.69834">
        <ele>1088</ele>
        <time>2014-08-04T14:43:16Z</time>
      </trkpt>
      <trkpt lat="45.53924" lon="2.69834">
        <ele>1090</ele>
        <time>2014-08-04T14:43:24Z</time>
      </trkpt>
      <trkpt lat="45.53915" lon="2.69834">
        <ele>1090</ele>
        <time>2014-08-04T14:43:32Z</time>
      </trkpt>
      <trkpt lat="45.53906" lon="2.69837">
        <ele>1090</ele>
        <time>2014-08-04T14:43:43Z</time>
      </trkpt>
      <trkpt lat="45.53898" lon="2.69839">
        <ele>1089</ele>
        <time>2014-08-04T14:43:51Z</time>
      </trkpt>
      <trkpt lat="45.5389" lon="2.69842">
        <ele>1091</ele>
        <time>2014-08-04T14:44:00Z</time>
      </trkpt>
      <trkpt lat="45.53882" lon="2.69843">
        <ele>1090</ele>
        <time>2014-08-04T14:44:08Z</time>
      </trkpt>
      <trkpt lat="45.53874" lon="2.69846">
        <ele>1091</ele>
        <time>2014-08-04T14:44:17Z</time>
      </trkpt>
      <trkpt lat="45.53866" lon="2.69848">
        <ele>1090</ele>
        <time>2014-08-04T14:44:25Z</time>
      </trkpt>
      <trkpt lat="45.53858" lon="2.69849">
        <ele>1089</ele>
        <time>2014-08-04T14:44:32Z</time>
      </trkpt>
      <trkpt lat="45.53849" lon="2.69852">
        <ele>1093</ele>
        <time>2014-08-04T14:44:45Z</time>
      </trkpt>
      <trkpt lat="45.53843" lon="2.69861">
        <ele>1092</ele>
        <time>2014-08-04T14:44:53Z</time>
      </trkpt>
      <trkpt lat="45.53834" lon="2.69862">
        <ele>1091</ele>
        <time>2014-08-04T14:45:02Z</time>
      </trkpt>
      <trkpt lat="45.53826" lon="2.69866">
        <ele>1089</ele>
        <time>2014-08-04T14:45:21Z</time>
      </trkpt>
      <trkpt lat="45.53818" lon="2.6987">
        <ele>1088</ele>
        <time>2014-08-04T14:45:29Z</time>
      </trkpt>
      <trkpt lat="45.5381" lon="2.69872">
        <ele>1087</ele>
        <time>2014-08-04T14:45:38Z</time>
      </trkpt>
      <trkpt lat="45.53802" lon="2.69873">
        <ele>1087</ele>
        <time>2014-08-04T14:45:47Z</time>
      </trkpt>
      <trkpt lat="45.53794" lon="2.69877">
        <ele>1085</ele>
        <time>2014-08-04T14:45:59Z</time>
      </trkpt>
      <trkpt lat="45.53785" lon="2.69876">
        <ele>1083</ele>
        <time>2014-08-04T14:46:10Z</time>
      </trkpt>
      <trkpt lat="45.53777" lon="2.69879">
        <ele>1081</ele>
        <time>2014-08-04T14:46:17Z</time>
      </trkpt>
      <trkpt lat="45.53772" lon="2.69875">
        <ele>1082</ele>
        <time>2014-08-04T14:46:56Z</time>
      </trkpt>
      <trkpt lat="45.53757" lon="2.69883">
        <ele>1081</ele>
        <time>2014-08-04T14:47:01Z</time>
      </trkpt>
      <trkpt lat="45.53748" lon="2.69886">
        <ele>1079</ele>
        <time>2014-08-04T14:47:05Z</time>
      </trkpt>
      <trkpt lat="45.5374" lon="2.69885">
        <ele>1077</ele>
        <time>2014-08-04T14:47:11Z</time>
      </trkpt>
      <trkpt lat="45.53732" lon="2.69889">
        <ele>1073</ele>
        <time>2014-08-04T14:47:29Z</time>
      </trkpt>
      <trkpt lat="45.53725" lon="2.69897">
        <ele>1072</ele>
        <time>2014-08-04T14:47:44Z</time>
      </trkpt>
      <trkpt lat="45.53716" lon="2.699">
        <ele>1066</ele>
        <time>2014-08-04T14:47:56Z</time>
      </trkpt>
      <trkpt lat="45.5371" lon="2.699">
        <ele>1067</ele>
        <time>2014-08-04T14:48:02Z</time>
      </trkpt>
      <trkpt lat="45.53702" lon="2.69894">
        <ele>1069</ele>
        <time>2014-08-04T14:48:08Z</time>
      </trkpt>
      <trkpt lat="45.53694" lon="2.69891">
        <ele>1069</ele>
        <time>2014-08-04T14:48:25Z</time>
      </trkpt>
      <trkpt lat="45.53686" lon="2.69889">
        <ele>1064</ele>
        <time>2014-08-04T14:48:36Z</time>
      </trkpt>
      <trkpt lat="45.53677" lon="2.6989">
        <ele>1064</ele>
        <time>2014-08-04T14:48:42Z</time>
      </trkpt>
      <trkpt lat="45.53669" lon="2.69887">
        <ele>1064</ele>
        <time>2014-08-04T14:48:48Z</time>
      </trkpt>
      <trkpt lat="45.53661" lon="2.69883">
        <ele>1067</ele>
        <time>2014-08-04T14:48:57Z</time>
      </trkpt>
      <trkpt lat="45.53654" lon="2.69876">
        <ele>1065</ele>
        <time>2014-08-04T14:49:06Z</time>
      </trkpt>
      <trkpt lat="45.53646" lon="2.69871">
        <ele>1065</ele>
        <time>2014-08-04T14:49:16Z</time>
      </trkpt>
      <trkpt lat="45.53639" lon="2.69868">
        <ele>1064</ele>
        <time>2014-08-04T14:49:22Z</time>
      </trkpt>
      <trkpt lat="45.53631" lon="2.69864">
        <ele>1063</ele>
        <time>2014-08-04T14:49:28Z</time>
      </trkpt>
      <trkpt lat="45.53623" lon="2.69865">
        <ele>1060</ele>
        <time>2014-08-04T14:49:41Z</time>
      </trkpt>
      <trkpt lat="45.53617" lon="2.6986">
        <ele>1060</ele>
        <time>2014-08-04T14:49:46Z</time>
      </trkpt>
      <trkpt lat="45.53611" lon="2.69854">
        <ele>1063</ele>
        <time>2014-08-04T14:49:51Z</time>
      </trkpt>
      <trkpt lat="45.53602" lon="2.69853">
        <ele>1061</ele>
        <time>2014-08-04T14:50:01Z</time>
      </trkpt>
      <trkpt lat="45.53594" lon="2.6985">
        <ele>1061</ele>
        <time>2014-08-04T14:50:11Z</time>
      </trkpt>
      <trkpt lat="45.53587" lon="2.69843">
        <ele>1061</ele>
        <time>2014-08-04T14:50:22Z</time>
      </trkpt>
      <trkpt lat="45.53578" lon="2.69841">
        <ele>1061</ele>
        <time>2014-08-04T14:50:31Z</time>
      </trkpt>
      <trkpt lat="45.5357" lon="2.69835">
        <ele>1061</ele>
        <time>2014-08-04T14:50:41Z</time>
      </trkpt>
      <trkpt lat="45.53564" lon="2.69827">
        <ele>1061</ele>
        <time>2014-08-04T14:50:47Z</time>
      </trkpt>
      <trkpt lat="45.53559" lon="2.69818">
        <ele>1061</ele>
        <time>2014-08-04T14:50:53Z</time>
      </trkpt>
      <trkpt lat="45.53556" lon="2.69808">
        <ele>1059</ele>
        <time>2014-08-04T14:51:00Z</time>
      </trkpt>
      <trkpt lat="45.53553" lon="2.69797">
        <ele>1060</ele>
        <time>2014-08-04T14:51:08Z</time>
      </trkpt>
      <trkpt lat="45.53552" lon="2.69785">
        <ele>1060</ele>
        <time>2014-08-04T14:51:18Z</time>
      </trkpt>
      <trkpt lat="45.5355" lon="2.69773">
        <ele>1059</ele>
        <time>2014-08-04T14:51:26Z</time>
      </trkpt>
      <trkpt lat="45.53549" lon="2.69761">
        <ele>1059</ele>
        <time>2014-08-04T14:51:33Z</time>
      </trkpt>
      <trkpt lat="45.53547" lon="2.69748">
        <ele>1059</ele>
        <time>2014-08-04T14:51:41Z</time>
      </trkpt>
      <trkpt lat="45.53545" lon="2.69738">
        <ele>1059</ele>
        <time>2014-08-04T14:51:49Z</time>
      </trkpt>
      <trkpt lat="45.53543" lon="2.69727">
        <ele>1058</ele>
        <time>2014-08-04T14:51:55Z</time>
      </trkpt>
      <trkpt lat="45.53541" lon="2.69715">
        <ele>1058</ele>
        <time>2014-08-04T14:52:01Z</time>
      </trkpt>
      <trkpt lat="45.53538" lon="2.69704">
        <ele>1056</ele>
        <time>2014-08-04T14:52:09Z</time>
      </trkpt>
      <trkpt lat="45.53538" lon="2.69692">
        <ele>1055</ele>
        <time>2014-08-04T14:52:16Z</time>
      </trkpt>
      <trkpt lat="45.53537" lon="2.69682">
        <ele>1056</ele>
        <time>2014-08-04T14:52:22Z</time>
      </trkpt>
      <trkpt lat="45.53536" lon="2.69671">
        <ele>1055</ele>
        <time>2014-08-04T14:52:28Z</time>
      </trkpt>
      <trkpt lat="45.53533" lon="2.6966">
        <ele>1054</ele>
        <time>2014-08-04T14:52:35Z</time>
      </trkpt>
      <trkpt lat="45.53532" lon="2.69648">
        <ele>1052</ele>
        <time>2014-08-04T14:52:43Z</time>
      </trkpt>
      <trkpt lat="45.5353" lon="2.69636">
        <ele>1054</ele>
        <time>2014-08-04T14:52:51Z</time>
      </trkpt>
      <trkpt lat="45.53528" lon="2.69624">
        <ele>1055</ele>
        <time>2014-08-04T14:52:59Z</time>
      </trkpt>
      <trkpt lat="45.53527" lon="2.69613">
        <ele>1054</ele>
        <time>2014-08-04T14:53:05Z</time>
      </trkpt>
      <trkpt lat="45.53525" lon="2.69601">
        <ele>1056</ele>
        <time>2014-08-04T14:53:12Z</time>
      </trkpt>
      <trkpt lat="45.53523" lon="2.6959">
        <ele>1051</ele>
        <time>2014-08-04T14:53:22Z</time>
      </trkpt>
      <trkpt lat="45.53519" lon="2.69579">
        <ele>1051</ele>
        <time>2014-08-04T14:53:28Z</time>
      </trkpt>
      <trkpt lat="45.53517" lon="2.69568">
        <ele>1052</ele>
        <time>2014-08-04T14:53:36Z</time>
      </trkpt>
      <trkpt lat="45.53512" lon="2.69559">
        <ele>1051</ele>
        <time>2014-08-04T14:53:43Z</time>
      </trkpt>
      <trkpt lat="45.5351" lon="2.69546">
        <ele>1051</ele>
        <time>2014-08-04T14:53:50Z</time>
      </trkpt>
      <trkpt lat="45.53507" lon="2.69535">
        <ele>1046</ele>
        <time>2014-08-04T14:53:57Z</time>
      </trkpt>
      <trkpt lat="45.53504" lon="2.69523">
        <ele>1047</ele>
        <time>2014-08-04T14:54:06Z</time>
      </trkpt>
      <trkpt lat="45.535" lon="2.69512">
        <ele>1049</ele>
        <time>2014-08-04T14:54:14Z</time>
      </trkpt>
      <trkpt lat="45.53495" lon="2.69503">
        <ele>1054</ele>
        <time>2014-08-04T14:54:20Z</time>
      </trkpt>
      <trkpt lat="45.53492" lon="2.69492">
        <ele>1055</ele>
        <time>2014-08-04T14:54:26Z</time>
      </trkpt>
      <trkpt lat="45.53488" lon="2.69482">
        <ele>1050</ele>
        <time>2014-08-04T14:54:35Z</time>
      </trkpt>
      <trkpt lat="45.53482" lon="2.69475">
        <ele>1050</ele>
        <time>2014-08-04T14:54:42Z</time>
      </trkpt>
      <trkpt lat="45.53476" lon="2.69467">
        <ele>1051</ele>
        <time>2014-08-04T14:54:48Z</time>
      </trkpt>
      <trkpt lat="45.53469" lon="2.6946">
        <ele>1050</ele>
        <time>2014-08-04T14:54:56Z</time>
      </trkpt>
      <trkpt lat="45.53462" lon="2.69454">
        <ele>1050</ele>
        <time>2014-08-04T14:55:03Z</time>
      </trkpt>
      <trkpt lat="45.53455" lon="2.69449">
        <ele>1050</ele>
        <time>2014-08-04T14:55:10Z</time>
      </trkpt>
      <trkpt lat="45.53447" lon="2.69444">
        <ele>1051</ele>
        <time>2014-08-04T14:55:17Z</time>
      </trkpt>
      <trkpt lat="45.5344" lon="2.69439">
        <ele>1051</ele>
        <time>2014-08-04T14:55:26Z</time>
      </trkpt>
      <trkpt lat="45.53433" lon="2.69431">
        <ele>1050</ele>
        <time>2014-08-04T14:55:33Z</time>
      </trkpt>
      <trkpt lat="45.53426" lon="2.69427">
        <ele>1050</ele>
        <time>2014-08-04T14:55:41Z</time>
      </trkpt>
      <trkpt lat="45.53418" lon="2.69421">
        <ele>1051</ele>
        <time>2014-08-04T14:55:49Z</time>
      </trkpt>
      <trkpt lat="45.53412" lon="2.69412">
        <ele>1052</ele>
        <time>2014-08-04T14:55:58Z</time>
      </trkpt>
      <trkpt lat="45.53404" lon="2.69407">
        <ele>1055</ele>
        <time>2014-08-04T14:56:12Z</time>
      </trkpt>
      <trkpt lat="45.53398" lon="2.69403">
        <ele>1053</ele>
        <time>2014-08-04T14:56:19Z</time>
      </trkpt>
      <trkpt lat="45.53392" lon="2.69394">
        <ele>1054</ele>
        <time>2014-08-04T14:56:24Z</time>
      </trkpt>
      <trkpt lat="45.53385" lon="2.69388">
        <ele>1048</ele>
        <time>2014-08-04T14:56:37Z</time>
      </trkpt>
      <trkpt lat="45.53378" lon="2.69382">
        <ele>1047</ele>
        <time>2014-08-04T14:56:44Z</time>
      </trkpt>
      <trkpt lat="45.53372" lon="2.69375">
        <ele>1051</ele>
        <time>2014-08-04T14:56:51Z</time>
      </trkpt>
      <trkpt lat="45.53365" lon="2.69367">
        <ele>1054</ele>
        <time>2014-08-04T14:56:59Z</time>
      </trkpt>
      <trkpt lat="45.5336" lon="2.6936">
        <ele>1055</ele>
        <time>2014-08-04T14:57:07Z</time>
      </trkpt>
      <trkpt lat="45.53353" lon="2.69357">
        <ele>1055</ele>
        <time>2014-08-04T14:57:14Z</time>
      </trkpt>
      <trkpt lat="45.53349" lon="2.69346">
        <ele>1055</ele>
        <time>2014-08-04T14:57:20Z</time>
      </trkpt>
      <trkpt lat="45.53343" lon="2.69337">
        <ele>1055</ele>
        <time>2014-08-04T14:57:27Z</time>
      </trkpt>
      <trkpt lat="45.53342" lon="2.69326">
        <ele>1054</ele>
        <time>2014-08-04T14:57:34Z</time>
      </trkpt>
      <trkpt lat="45.5334" lon="2.69315">
        <ele>1055</ele>
        <time>2014-08-04T14:57:40Z</time>
      </trkpt>
      <trkpt lat="45.53338" lon="2.69305">
        <ele>1054</ele>
        <time>2014-08-04T14:57:46Z</time>
      </trkpt>
      <trkpt lat="45.53334" lon="2.69294">
        <ele>1053</ele>
        <time>2014-08-04T14:57:53Z</time>
      </trkpt>
      <trkpt lat="45.5333" lon="2.69284">
        <ele>1052</ele>
        <time>2014-08-04T14:58:02Z</time>
      </trkpt>
      <trkpt lat="45.53326" lon="2.69276">
        <ele>1052</ele>
        <time>2014-08-04T14:58:09Z</time>
      </trkpt>
      <trkpt lat="45.5332" lon="2.69266">
        <ele>1049</ele>
        <time>2014-08-04T14:58:15Z</time>
      </trkpt>
      <trkpt lat="45.53317" lon="2.69255">
        <ele>1051</ele>
        <time>2014-08-04T14:58:24Z</time>
      </trkpt>
      <trkpt lat="45.53315" lon="2.69244">
        <ele>1050</ele>
        <time>2014-08-04T14:58:31Z</time>
      </trkpt>
      <trkpt lat="45.5331" lon="2.69236">
        <ele>1049</ele>
        <time>2014-08-04T14:58:38Z</time>
      </trkpt>
      <trkpt lat="45.53304" lon="2.69228">
        <ele>1049</ele>
        <time>2014-08-04T14:58:48Z</time>
      </trkpt>
      <trkpt lat="45.53295" lon="2.69227">
        <ele>1048</ele>
        <time>2014-08-04T14:58:55Z</time>
      </trkpt>
      <trkpt lat="45.53287" lon="2.69228">
        <ele>1045</ele>
        <time>2014-08-04T14:59:06Z</time>
      </trkpt>
      <trkpt lat="45.53287" lon="2.69215">
        <ele>1046</ele>
        <time>2014-08-04T14:59:44Z</time>
      </trkpt>
      <trkpt lat="45.53291" lon="2.69204">
        <ele>1047</ele>
        <time>2014-08-04T14:59:54Z</time>
      </trkpt>
      <trkpt lat="45.53289" lon="2.69192">
        <ele>1049</ele>
        <time>2014-08-04T15:00:03Z</time>
      </trkpt>
      <trkpt lat="45.53285" lon="2.69181">
        <ele>1050</ele>
        <time>2014-08-04T15:01:29Z</time>
      </trkpt>
      <trkpt lat="45.5328" lon="2.69171">
        <ele>1049</ele>
        <time>2014-08-04T15:01:38Z</time>
      </trkpt>
      <trkpt lat="45.53273" lon="2.69168">
        <ele>1051</ele>
        <time>2014-08-04T15:01:48Z</time>
      </trkpt>
      <trkpt lat="45.53269" lon="2.69158">
        <ele>1050</ele>
        <time>2014-08-04T15:01:54Z</time>
      </trkpt>
      <trkpt lat="45.53273" lon="2.69147">
        <ele>1044</ele>
        <time>2014-08-04T15:02:11Z</time>
      </trkpt>
      <trkpt lat="45.53277" lon="2.69136">
        <ele>1042</ele>
        <time>2014-08-04T15:02:20Z</time>
      </trkpt>
      <trkpt lat="45.53274" lon="2.69125">
        <ele>1045</ele>
        <time>2014-08-04T15:02:32Z</time>
      </trkpt>
      <trkpt lat="45.53269" lon="2.69117">
        <ele>1046</ele>
        <time>2014-08-04T15:02:39Z</time>
      </trkpt>
      <trkpt lat="45.53259" lon="2.69111">
        <ele>1046</ele>
        <time>2014-08-04T15:02:44Z</time>
      </trkpt>
      <trkpt lat="45.53254" lon="2.69102">
        <ele>1048</ele>
        <time>2014-08-04T15:02:53Z</time>
      </trkpt>
      <trkpt lat="45.53244" lon="2.69097">
        <ele>1051</ele>
        <time>2014-08-04T15:02:57Z</time>
      </trkpt>
      <trkpt lat="45.53236" lon="2.69095">
        <ele>1055</ele>
        <time>2014-08-04T15:03:01Z</time>
      </trkpt>
      <trkpt lat="45.53242" lon="2.69091">
        <ele>1057</ele>
        <time>2014-08-04T15:03:08Z</time>
      </trkpt>
      <trkpt lat="45.5325" lon="2.69082">
        <ele>1055</ele>
        <time>2014-08-04T15:03:13Z</time>
      </trkpt>
      <trkpt lat="45.53244" lon="2.69074">
        <ele>1052</ele>
        <time>2014-08-04T15:03:30Z</time>
      </trkpt>
      <trkpt lat="45.53241" lon="2.69062">
        <ele>1054</ele>
        <time>2014-08-04T15:03:36Z</time>
      </trkpt>
      <trkpt lat="45.53238" lon="2.69052">
        <ele>1054</ele>
        <time>2014-08-04T15:03:41Z</time>
      </trkpt>
      <trkpt lat="45.53237" lon="2.6904">
        <ele>1048</ele>
        <time>2014-08-04T15:03:52Z</time>
      </trkpt>
      <trkpt lat="45.53237" lon="2.69029">
        <ele>1047</ele>
        <time>2014-08-04T15:04:05Z</time>
      </trkpt>
      <trkpt lat="45.5323" lon="2.69015">
        <ele>1041</ele>
        <time>2014-08-04T15:04:09Z</time>
      </trkpt>
      <trkpt lat="45.5323" lon="2.69003">
        <ele>1041</ele>
        <time>2014-08-04T15:04:26Z</time>
      </trkpt>
      <trkpt lat="45.53235" lon="2.68994">
        <ele>1040</ele>
        <time>2014-08-04T15:04:40Z</time>
      </trkpt>
      <trkpt lat="45.53243" lon="2.68987">
        <ele>1037</ele>
        <time>2014-08-04T15:04:47Z</time>
      </trkpt>
      <trkpt lat="45.53248" lon="2.68977">
        <ele>1036</ele>
        <time>2014-08-04T15:04:55Z</time>
      </trkpt>
      <trkpt lat="45.53255" lon="2.6897">
        <ele>1032</ele>
        <time>2014-08-04T15:05:05Z</time>
      </trkpt>
      <trkpt lat="45.53263" lon="2.6897">
        <ele>1031</ele>
        <time>2014-08-04T15:05:22Z</time>
      </trkpt>
      <trkpt lat="45.53272" lon="2.68972">
        <ele>1026</ele>
        <time>2014-08-04T15:05:33Z</time>
      </trkpt>
      <trkpt lat="45.53275" lon="2.6896">
        <ele>1023</ele>
        <time>2014-08-04T15:05:41Z</time>
      </trkpt>
      <trkpt lat="45.53276" lon="2.68948">
        <ele>1028</ele>
        <time>2014-08-04T15:05:49Z</time>
      </trkpt>
      <trkpt lat="45.53277" lon="2.68936">
        <ele>1029</ele>
        <time>2014-08-04T15:05:59Z</time>
      </trkpt>
      <trkpt lat="45.53278" lon="2.68925">
        <ele>1030</ele>
        <time>2014-08-04T15:06:08Z</time>
      </trkpt>
      <trkpt lat="45.53277" lon="2.68913">
        <ele>1035</ele>
        <time>2014-08-04T15:06:17Z</time>
      </trkpt>
      <trkpt lat="45.5328" lon="2.68904">
        <ele>1031</ele>
        <time>2014-08-04T15:06:27Z</time>
      </trkpt>
      <trkpt lat="45.53279" lon="2.68895">
        <ele>1030</ele>
        <time>2014-08-04T15:06:33Z</time>
      </trkpt>
      <trkpt lat="45.53272" lon="2.68889">
        <ele>1037</ele>
        <time>2014-08-04T15:06:37Z</time>
      </trkpt>
      <trkpt lat="45.53265" lon="2.6888">
        <ele>1037</ele>
        <time>2014-08-04T15:06:42Z</time>
      </trkpt>
      <trkpt lat="45.53259" lon="2.68873">
        <ele>1035</ele>
        <time>2014-08-04T15:06:47Z</time>
      </trkpt>
      <trkpt lat="45.53258" lon="2.68861">
        <ele>1031</ele>
        <time>2014-08-04T15:06:53Z</time>
      </trkpt>
      <trkpt lat="45.53264" lon="2.68852">
        <ele>1025</ele>
        <time>2014-08-04T15:07:09Z</time>
      </trkpt>
      <trkpt lat="45.53273" lon="2.6885">
        <ele>1022</ele>
        <time>2014-08-04T15:07:16Z</time>
      </trkpt>
      <trkpt lat="45.53281" lon="2.68856">
        <ele>1016</ele>
        <time>2014-08-04T15:07:23Z</time>
      </trkpt>
      <trkpt lat="45.53287" lon="2.68862">
        <ele>1015</ele>
        <time>2014-08-04T15:07:38Z</time>
      </trkpt>
      <trkpt lat="45.533" lon="2.68869">
        <ele>1014</ele>
        <time>2014-08-04T15:07:42Z</time>
      </trkpt>
      <trkpt lat="45.533" lon="2.68856">
        <ele>1012</ele>
        <time>2014-08-04T15:07:58Z</time>
      </trkpt>
      <trkpt lat="45.533" lon="2.68844">
        <ele>1011</ele>
        <time>2014-08-04T15:08:09Z</time>
      </trkpt>
      <trkpt lat="45.53301" lon="2.68832">
        <ele>1014</ele>
        <time>2014-08-04T15:08:19Z</time>
      </trkpt>
      <trkpt lat="45.53296" lon="2.68824">
        <ele>1019</ele>
        <time>2014-08-04T15:08:30Z</time>
      </trkpt>
      <trkpt lat="45.53289" lon="2.6882">
        <ele>1018</ele>
        <time>2014-08-04T15:08:35Z</time>
      </trkpt>
      <trkpt lat="45.53284" lon="2.68809">
        <ele>1018</ele>
        <time>2014-08-04T15:08:44Z</time>
      </trkpt>
      <trkpt lat="45.53281" lon="2.68798">
        <ele>1014</ele>
        <time>2014-08-04T15:08:49Z</time>
      </trkpt>
      <trkpt lat="45.5328" lon="2.68787">
        <ele>1013</ele>
        <time>2014-08-04T15:08:54Z</time>
      </trkpt>
      <trkpt lat="45.53274" lon="2.68778">
        <ele>1014</ele>
        <time>2014-08-04T15:09:00Z</time>
      </trkpt>
      <trkpt lat="45.53275" lon="2.68767">
        <ele>1007</ele>
        <time>2014-08-04T15:09:09Z</time>
      </trkpt>
      <trkpt lat="45.53272" lon="2.68755">
        <ele>997</ele>
        <time>2014-08-04T15:09:37Z</time>
      </trkpt>
      <trkpt lat="45.53266" lon="2.68746">
        <ele>997</ele>
        <time>2014-08-04T15:09:41Z</time>
      </trkpt>
      <trkpt lat="45.53263" lon="2.68736">
        <ele>996</ele>
        <time>2014-08-04T15:09:45Z</time>
      </trkpt>
      <trkpt lat="45.53265" lon="2.68725">
        <ele>995</ele>
        <time>2014-08-04T15:09:52Z</time>
      </trkpt>
      <trkpt lat="45.53266" lon="2.68712">
        <ele>995</ele>
        <time>2014-08-04T15:10:00Z</time>
      </trkpt>
      <trkpt lat="45.53269" lon="2.68702">
        <ele>993</ele>
        <time>2014-08-04T15:10:08Z</time>
      </trkpt>
      <trkpt lat="45.53273" lon="2.68693">
        <ele>995</ele>
        <time>2014-08-04T15:10:42Z</time>
      </trkpt>
      <trkpt lat="45.53273" lon="2.68693">
        <ele>995</ele>
        <time>2014-08-04T15:10:42Z</time>
      </trkpt>
    </trkseg>
  </trk>
</gpx>